createdAt,value
2022-08-31T00:01:47.240Z,987
2022-08-31T00:05:49.698Z,986.8
2022-08-31T00:07:51.168Z,986.8
2022-08-31T00:09:53.010Z,986.9
2022-08-31T00:11:54.454Z,986.8
2022-08-31T00:15:56.583Z,986.9
2022-08-31T00:17:57.497Z,986.9
2022-08-31T00:19:58.520Z,986.9
2022-08-31T00:22:00.387Z,986.9
2022-08-31T00:24:01.469Z,986.9
2022-08-31T00:26:02.950Z,986.9
2022-08-31T00:28:04.839Z,986.9
2022-08-31T00:30:06.670Z,986.9
2022-08-31T00:32:08.484Z,986.9
2022-08-31T00:34:10.024Z,986.8
2022-08-31T00:36:11.494Z,986.9
2022-08-31T00:38:12.952Z,986.9
2022-08-31T00:40:14.126Z,986.8
2022-08-31T00:42:15.432Z,986.9
2022-08-31T00:44:16.446Z,986.8
2022-08-31T00:46:17.693Z,986.9
2022-08-31T00:48:19.297Z,986.8
2022-08-31T00:50:20.953Z,986.8
2022-08-31T00:52:22.382Z,986.8
2022-08-31T00:54:24.103Z,986.8
2022-08-31T00:56:25.417Z,986.8
2022-08-31T00:58:26.661Z,986.9
2022-08-31T01:00:28.391Z,986.8
2022-08-31T01:04:31.844Z,986.8
2022-08-31T01:06:33.710Z,986.8
2022-08-31T01:08:35.540Z,986.8
2022-08-31T01:10:37.297Z,986.7
2022-08-31T01:12:38.637Z,986.6
2022-08-31T01:14:40.384Z,986.7
2022-08-31T01:16:41.833Z,986.7
2022-08-31T01:18:43.169Z,986.7
2022-08-31T01:20:45.807Z,986.8
2022-08-31T01:22:45.393Z,986.7
2022-08-31T01:24:46.643Z,986.7
2022-08-31T01:26:49.595Z,986.7
2022-08-31T01:28:49.244Z,986.7
2022-08-31T01:30:50.551Z,986.7
2022-08-31T01:32:52.220Z,986.7
2022-08-31T01:34:53.621Z,986.6
2022-08-31T01:36:54.945Z,986.6
2022-08-31T01:38:56.706Z,986.7
2022-08-31T01:40:57.954Z,986.7
2022-08-31T01:42:59.316Z,986.7
2022-08-31T01:47:01.806Z,986.6
2022-08-31T01:49:03.491Z,986.6
2022-08-31T01:51:04.635Z,986.6
2022-08-31T01:53:06.411Z,986.6
2022-08-31T01:55:07.890Z,986.6
2022-08-31T01:57:08.984Z,986.5
2022-08-31T01:59:10.392Z,986.5
2022-08-31T02:03:12.647Z,986.6
2022-08-31T02:05:13.554Z,986.5
2022-08-31T02:07:14.527Z,986.5
2022-08-31T02:09:15.880Z,986.6
2022-08-31T02:11:17.506Z,986.6
2022-08-31T02:13:19.158Z,986.6
2022-08-31T02:15:20.529Z,986.5
2022-08-31T02:17:21.512Z,986.6
2022-08-31T02:19:22.590Z,986.6
2022-08-31T02:21:24.442Z,986.6
2022-08-31T02:23:25.619Z,986.6
2022-08-31T02:25:26.649Z,986.6
2022-08-31T02:27:27.951Z,986.6
2022-08-31T02:29:29.518Z,986.5
2022-08-31T02:33:33.224Z,986.6
2022-08-31T02:35:34.456Z,986.5
2022-08-31T02:37:35.677Z,986.6
2022-08-31T02:39:37.145Z,986.7
2022-08-31T02:41:38.130Z,986.7
2022-08-31T02:43:39.569Z,986.8
2022-08-31T02:45:40.895Z,986.7
2022-08-31T02:47:42.331Z,986.8
2022-08-31T02:49:43.470Z,986.8
2022-08-31T02:51:44.785Z,986.8
2022-08-31T02:53:46.128Z,986.8
2022-08-31T02:55:47.278Z,986.8
2022-08-31T02:57:48.423Z,986.8
2022-08-31T02:59:50.256Z,986.8
2022-08-31T03:01:51.822Z,986.8
2022-08-31T03:03:52.735Z,986.8
2022-08-31T03:05:54.365Z,986.8
2022-08-31T03:07:55.799Z,986.8
2022-08-31T03:11:58.430Z,986.7
2022-08-31T03:13:59.973Z,986.8
2022-08-31T03:16:01.319Z,986.7
2022-08-31T03:18:03.192Z,986.8
2022-08-31T03:20:03.547Z,986.7
2022-08-31T03:22:05.187Z,986.6
2022-08-31T03:24:06.599Z,986.6
2022-08-31T03:28:09.700Z,986.6
2022-08-31T03:30:11.418Z,986.7
2022-08-31T03:32:12.912Z,986.6
2022-08-31T03:34:16.054Z,986.6
2022-08-31T03:36:15.640Z,986.7
2022-08-31T03:38:16.643Z,986.7
2022-08-31T03:40:17.644Z,986.7
2022-08-31T03:42:19.237Z,986.6
2022-08-31T03:44:20.788Z,986.6
2022-08-31T03:46:21.895Z,986.6
2022-08-31T03:50:24.647Z,986.6
2022-08-31T03:52:25.795Z,986.6
2022-08-31T03:54:27.356Z,986.6
2022-08-31T03:56:28.753Z,986.6
2022-08-31T03:58:30.310Z,986.8
2022-08-31T04:00:31.970Z,986.7
2022-08-31T04:01:15.781Z,986.7
2022-08-31T04:05:18.753Z,986.7
2022-08-31T04:07:20.005Z,986.8
2022-08-31T04:09:20.994Z,986.8
2022-08-31T04:11:27.981Z,986.8
2022-08-31T04:13:26.792Z,986.8
2022-08-31T04:15:25.631Z,986.8
2022-08-31T04:17:27.526Z,986.8
2022-08-31T04:21:29.950Z,986.9
2022-08-31T04:23:31.546Z,986.9
2022-08-31T04:25:33.003Z,986.9
2022-08-31T04:27:33.917Z,986.9
2022-08-31T04:29:35.224Z,986.9
2022-08-31T04:31:36.706Z,986.9
2022-08-31T04:33:38.438Z,987
2022-08-31T04:35:40.039Z,986.9
2022-08-31T04:37:44.592Z,987
2022-08-31T04:41:44.090Z,987
2022-08-31T04:43:45.345Z,987
2022-08-31T04:47:48.151Z,987.1
2022-08-31T04:49:49.817Z,987.1
2022-08-31T04:51:51.647Z,987.2
2022-08-31T04:53:53.054Z,987.1
2022-08-31T04:55:54.869Z,987.2
2022-08-31T04:57:55.884Z,987.2
2022-08-31T04:59:57.721Z,987.2
2022-08-31T05:01:59.231Z,987.3
2022-08-31T05:04:00.576Z,987.2
2022-08-31T05:06:01.930Z,987.2
2022-08-31T05:08:03.163Z,987.2
2022-08-31T05:10:04.560Z,987.3
2022-08-31T05:12:05.479Z,987.3
2022-08-31T05:14:06.459Z,987.4
2022-08-31T05:16:07.838Z,987.4
2022-08-31T05:18:08.753Z,987.4
2022-08-31T05:20:10.229Z,987.3
2022-08-31T05:22:11.782Z,987.5
2022-08-31T05:24:13.286Z,987.3
2022-08-31T05:26:15.081Z,987.4
2022-08-31T05:28:16.204Z,987.4
2022-08-31T05:30:17.131Z,987.4
2022-08-31T05:32:18.204Z,987.5
2022-08-31T05:34:19.308Z,987.4
2022-08-31T05:36:20.755Z,987.4
2022-08-31T05:38:21.916Z,987.4
2022-08-31T05:40:23.352Z,987.4
2022-08-31T05:42:25.037Z,987.4
2022-08-31T05:44:27.705Z,987.5
2022-08-31T05:46:28.227Z,987.5
2022-08-31T05:48:29.928Z,987.5
2022-08-31T05:50:31.405Z,987.5
2022-08-31T05:52:32.514Z,987.4
2022-08-31T05:54:33.711Z,987.5
2022-08-31T05:56:34.896Z,987.6
2022-08-31T05:58:35.902Z,987.5
2022-08-31T06:00:37.133Z,987.5
2022-08-31T06:02:38.438Z,987.5
2022-08-31T06:04:39.404Z,987.5
2022-08-31T06:06:41.216Z,987.5
2022-08-31T06:08:42.219Z,987.5
2022-08-31T06:10:43.871Z,987.6
2022-08-31T06:12:45.393Z,987.6
2022-08-31T06:14:48.967Z,987.6
2022-08-31T06:18:49.527Z,987.6
2022-08-31T06:20:51.138Z,987.6
2022-08-31T06:22:52.824Z,987.6
2022-08-31T06:24:54.303Z,987.6
2022-08-31T06:26:58.249Z,987.6
2022-08-31T06:28:57.172Z,987.7
2022-08-31T06:30:58.562Z,987.7
2022-08-31T06:33:00.366Z,987.7
2022-08-31T06:35:01.315Z,987.7
2022-08-31T06:37:02.562Z,987.7
2022-08-31T06:39:03.703Z,987.6
2022-08-31T06:41:05.095Z,987.7
2022-08-31T06:43:06.778Z,987.7
2022-08-31T06:45:08.076Z,987.7
2022-08-31T06:47:09.730Z,987.7
2022-08-31T06:49:10.554Z,987.7
2022-08-31T06:51:12.296Z,987.7
2022-08-31T06:53:14.131Z,987.8
2022-08-31T06:55:15.141Z,987.9
2022-08-31T06:57:16.738Z,988
2022-08-31T06:59:18.423Z,988
2022-08-31T07:01:20.507Z,987.9
2022-08-31T07:03:21.076Z,987.9
2022-08-31T07:05:24.617Z,988
2022-08-31T07:07:23.424Z,987.9
2022-08-31T07:09:24.724Z,987.9
2022-08-31T07:11:26.450Z,988
2022-08-31T07:13:27.822Z,988
2022-08-31T07:17:30.859Z,987.9
2022-08-31T07:19:32.282Z,987.9
2022-08-31T07:21:33.702Z,987.9
2022-08-31T07:23:35.510Z,988.1
2022-08-31T07:25:36.443Z,988
2022-08-31T07:27:37.882Z,988
2022-08-31T07:29:39.490Z,988
2022-08-31T07:31:40.580Z,988.1
2022-08-31T07:33:41.885Z,988
2022-08-31T07:35:43.190Z,988
2022-08-31T07:37:44.594Z,988
2022-08-31T07:39:45.482Z,987.9
2022-08-31T07:43:48.099Z,988
2022-08-31T07:45:49.263Z,988
2022-08-31T07:47:50.003Z,987.9
2022-08-31T07:49:51.560Z,988
2022-08-31T07:51:52.605Z,988.1
2022-08-31T07:53:53.994Z,988
2022-08-31T07:55:55.071Z,988
2022-08-31T07:57:56.478Z,988.1
2022-08-31T07:59:57.877Z,988.1
2022-08-31T08:01:59.734Z,988.1
2022-08-31T08:04:00.931Z,988.1
2022-08-31T08:06:02.566Z,988
2022-08-31T08:08:04.134Z,988
2022-08-31T08:10:05.898Z,988.1
2022-08-31T08:12:07.285Z,988.2
2022-08-31T08:14:08.698Z,988.2
2022-08-31T08:16:09.385Z,988.2
2022-08-31T08:18:11.126Z,988.2
2022-08-31T08:20:13.851Z,988.1
2022-08-31T08:24:15.370Z,988.1
2022-08-31T08:26:21.504Z,988.2
2022-08-31T08:28:37.871Z,988.3
2022-08-31T08:30:19.058Z,988.2
2022-08-31T08:32:20.661Z,988.2
2022-08-31T08:36:23.717Z,988.2
2022-08-31T08:38:25.309Z,988.2
2022-08-31T08:42:27.837Z,988.2
2022-08-31T08:44:29.180Z,988.2
2022-08-31T08:46:35.031Z,988.1
2022-08-31T08:48:32.445Z,988.1
2022-08-31T08:50:33.466Z,988.1
2022-08-31T08:52:35.280Z,988.1
2022-08-31T08:54:36.851Z,988.2
2022-08-31T08:56:38.029Z,988.2
2022-08-31T08:58:38.881Z,988.2
2022-08-31T09:00:39.971Z,988.2
2022-08-31T09:02:40.986Z,988.3
2022-08-31T09:04:42.425Z,988.3
2022-08-31T09:06:46.037Z,988.3
2022-08-31T09:08:45.391Z,988.3
2022-08-31T09:10:46.885Z,988.3
2022-08-31T09:12:47.971Z,988.4
2022-08-31T09:14:49.733Z,988.3
2022-08-31T09:16:51.534Z,988.3
2022-08-31T09:18:52.387Z,988.3
2022-08-31T09:20:53.869Z,988.3
2022-08-31T09:22:55.207Z,988.3
2022-08-31T09:24:58.926Z,988.3
2022-08-31T09:26:58.636Z,988.3
2022-08-31T09:28:59.756Z,988.4
2022-08-31T09:31:01.526Z,988.4
2022-08-31T09:33:02.551Z,988.3
2022-08-31T09:35:03.988Z,988.4
2022-08-31T09:45:11.372Z,988.3
2022-08-31T09:47:12.173Z,988.3
2022-08-31T09:49:13.383Z,988.2
2022-08-31T09:51:14.912Z,988.3
2022-08-31T09:53:15.755Z,988.4
2022-08-31T09:55:17.125Z,988.2
2022-08-31T09:57:18.158Z,988.2
2022-08-31T09:59:19.612Z,988.3
2022-08-31T10:01:20.517Z,988.3
2022-08-31T10:03:22.374Z,988.3
2022-08-31T10:07:25.167Z,988.2
2022-08-31T10:09:26.616Z,988.3
2022-08-31T10:11:27.874Z,988.2
2022-08-31T10:13:29.653Z,988.2
2022-08-31T10:17:32.441Z,988.2
2022-08-31T10:19:33.949Z,988.2
2022-08-31T10:21:35.009Z,988.2
2022-08-31T10:23:35.761Z,988.2
2022-08-31T10:25:37.274Z,988.2
2022-08-31T10:27:38.700Z,988
2022-08-31T10:29:40.437Z,988
2022-08-31T10:31:41.493Z,988.2
2022-08-31T10:33:42.486Z,988
2022-08-31T10:35:43.774Z,988.2
2022-08-31T10:37:45.230Z,988.1
2022-08-31T10:39:46.456Z,988.1
2022-08-31T10:41:48.154Z,988.1
2022-08-31T10:43:49.727Z,988.1
2022-08-31T10:45:51.023Z,988.1
2022-08-31T10:46:34.756Z,988.1
2022-08-31T10:48:35.999Z,988.1
2022-08-31T10:50:36.932Z,988.1
2022-08-31T10:52:38.008Z,988
2022-08-31T10:54:39.795Z,988
2022-08-31T10:56:41.431Z,988
2022-08-31T10:58:42.453Z,988
2022-08-31T11:00:44.156Z,988.2
2022-08-31T11:02:45.888Z,988
2022-08-31T11:04:47.732Z,988.1
2022-08-31T11:06:48.986Z,988.1
2022-08-31T11:08:49.768Z,988.1
2022-08-31T11:10:51.170Z,988.1
2022-08-31T11:12:52.620Z,988.1
2022-08-31T11:16:54.994Z,988.1
2022-08-31T11:18:55.829Z,988.1
2022-08-31T11:20:57.462Z,988
2022-08-31T11:22:58.660Z,988
2022-08-31T11:25:00.349Z,988
2022-08-31T11:27:01.285Z,988
2022-08-31T11:29:02.092Z,988
2022-08-31T11:31:03.595Z,988
2022-08-31T11:33:05.186Z,988
2022-08-31T11:35:06.577Z,988
2022-08-31T11:37:07.949Z,988
2022-08-31T11:39:09.120Z,988
2022-08-31T11:41:10.112Z,988
2022-08-31T11:43:11.621Z,987.9
2022-08-31T11:45:14.208Z,988
2022-08-31T11:47:14.531Z,987.9
2022-08-31T11:49:15.570Z,987.9
2022-08-31T11:51:16.554Z,987.9
2022-08-31T11:53:17.884Z,987.9
2022-08-31T11:55:18.907Z,987.7
2022-08-31T11:57:20.212Z,987.8
2022-08-31T11:59:21.726Z,987.8
2022-08-31T12:01:23.079Z,987.7
2022-08-31T12:03:24.510Z,987.7
2022-08-31T12:05:25.978Z,987.8
2022-08-31T12:07:27.182Z,987.7
2022-08-31T12:09:28.914Z,987.7
2022-08-31T12:11:30.533Z,987.7
2022-08-31T12:13:31.790Z,987.8
2022-08-31T12:15:32.959Z,987.7
2022-08-31T12:17:34.171Z,987.8
2022-08-31T12:19:35.762Z,987.7
2022-08-31T12:23:38.497Z,987.7
2022-08-31T12:25:39.920Z,987.8
2022-08-31T12:27:41.037Z,987.8
2022-08-31T12:29:41.826Z,987.7
2022-08-31T12:31:43.262Z,987.7
2022-08-31T12:33:44.263Z,987.7
2022-08-31T12:35:45.144Z,987.6
2022-08-31T12:37:46.381Z,987.7
2022-08-31T12:41:48.741Z,987.7
2022-08-31T12:43:50.042Z,987.7
2022-08-31T12:45:51.338Z,987.7
2022-08-31T12:47:52.566Z,987.6
2022-08-31T12:49:53.501Z,987.7
2022-08-31T12:51:54.979Z,987.7
2022-08-31T12:53:56.109Z,987.8
2022-08-31T12:55:57.118Z,987.8
2022-08-31T13:02:00.085Z,987.6
2022-08-31T13:04:00.955Z,987.6
2022-08-31T13:06:02.579Z,987.5
2022-08-31T13:08:07.983Z,987.6
2022-08-31T13:10:05.658Z,987.6
2022-08-31T13:12:06.889Z,987.6
2022-08-31T13:14:08.046Z,987.5
2022-08-31T13:16:09.160Z,987.4
2022-08-31T13:18:09.939Z,987.4
2022-08-31T13:20:11.099Z,987.5
2022-08-31T13:24:13.761Z,987.5
2022-08-31T13:26:15.290Z,987.5
2022-08-31T13:28:16.199Z,987.4
2022-08-31T13:30:17.808Z,987.4
2022-08-31T13:32:19.441Z,987.4
2022-08-31T13:34:20.458Z,987.3
2022-08-31T13:36:21.833Z,987.2
2022-08-31T13:38:22.681Z,987.2
2022-08-31T13:40:24.305Z,987.3
2022-08-31T13:42:25.998Z,987.4
2022-08-31T13:44:27.517Z,987.4
2022-08-31T13:46:41.772Z,987.3
2022-08-31T13:48:29.973Z,987.3
2022-08-31T13:50:31.312Z,987.3
2022-08-31T13:52:32.607Z,987.3
2022-08-31T13:54:33.769Z,987.3
2022-08-31T13:56:35.445Z,987.2
2022-08-31T13:58:36.178Z,987.3
2022-08-31T14:00:37.428Z,987.2
2022-08-31T14:02:39.083Z,987.3
2022-08-31T14:04:40.601Z,987.2
2022-08-31T14:06:41.889Z,987.1
2022-08-31T14:08:43.409Z,987.1
2022-08-31T14:10:45.045Z,987.1
2022-08-31T14:12:46.408Z,987.3
2022-08-31T14:14:47.864Z,987.2
2022-08-31T14:16:51.869Z,987.2
2022-08-31T14:18:50.102Z,987.2
2022-08-31T14:21:17.079Z,987.2
2022-08-31T14:22:52.476Z,987.3
2022-08-31T14:24:53.741Z,987.3
2022-08-31T14:26:55.491Z,987.2
2022-08-31T14:28:56.903Z,987.2
2022-08-31T14:32:59.317Z,987.3
2022-08-31T14:35:00.534Z,987.2
2022-08-31T14:39:02.635Z,987.2
2022-08-31T14:41:03.950Z,987.2
2022-08-31T14:43:05.013Z,987.2
2022-08-31T14:45:05.784Z,987.1
2022-08-31T14:47:07.307Z,987.1
2022-08-31T14:49:08.224Z,987.1
2022-08-31T14:51:09.006Z,987.1
2022-08-31T14:53:10.013Z,987.1
2022-08-31T14:57:12.467Z,987.1
2022-08-31T14:59:13.941Z,987.1
2022-08-31T15:01:14.785Z,987.2
2022-08-31T15:03:15.872Z,987.2
2022-08-31T15:05:16.895Z,987.1
2022-08-31T15:07:18.032Z,987.2
2022-08-31T15:09:19.495Z,987.2
2022-08-31T15:11:20.228Z,987.2
2022-08-31T15:15:23.111Z,987.2
2022-08-31T15:17:24.291Z,987.2
2022-08-31T15:19:26.194Z,987.1
2022-08-31T15:21:27.518Z,987.2
2022-08-31T15:23:28.870Z,987.2
2022-08-31T15:25:30.209Z,987.2
2022-08-31T15:27:31.862Z,987.2
2022-08-31T15:29:32.951Z,987.3
2022-08-31T15:31:34.677Z,987.2
2022-08-31T15:33:35.632Z,987.2
2022-08-31T15:35:37.295Z,987.2
2022-08-31T15:37:38.079Z,987.2
2022-08-31T15:39:39.469Z,987.2
2022-08-31T15:41:40.896Z,987.1
2022-08-31T15:43:42.461Z,987.1
2022-08-31T15:45:43.714Z,987.2
2022-08-31T15:47:45.040Z,987.1
2022-08-31T15:49:45.978Z,987.1
2022-08-31T15:51:47.065Z,987.2
2022-08-31T15:54:00.987Z,987.1
2022-08-31T15:55:49.928Z,987.1
2022-08-31T15:57:50.866Z,987.1
2022-08-31T15:59:52.403Z,987.1
2022-08-31T16:01:53.934Z,987.1
2022-08-31T16:03:55.171Z,987.1
2022-08-31T16:05:56.921Z,987
2022-08-31T16:07:57.753Z,987.1
2022-08-31T16:09:58.969Z,987
2022-08-31T16:11:59.857Z,987
2022-08-31T16:14:01.227Z,987
2022-08-31T16:16:02.008Z,987.1
2022-08-31T16:20:04.890Z,987
2022-08-31T16:22:06.249Z,987
2022-08-31T16:24:08.089Z,987
2022-08-31T16:26:09.366Z,987
2022-08-31T16:28:11.209Z,987
2022-08-31T16:30:12.276Z,987
2022-08-31T16:32:13.438Z,987
2022-08-31T16:34:14.741Z,987
2022-08-31T16:36:15.574Z,987
2022-08-31T16:38:16.976Z,987.1
2022-08-31T16:40:18.254Z,987
2022-08-31T16:42:19.302Z,987
2022-08-31T16:44:21.074Z,987.1
2022-08-31T16:46:39.898Z,987.1
2022-08-31T16:48:23.670Z,987.1
2022-08-31T16:50:24.619Z,987.1
2022-08-31T16:52:25.448Z,987.1
2022-08-31T16:54:26.302Z,987.1
2022-08-31T16:56:27.718Z,987.2
2022-08-31T16:58:47.975Z,987.2
2022-08-31T17:00:33.080Z,987.1
2022-08-31T17:02:31.385Z,987.1
2022-08-31T17:04:51.375Z,987.1
2022-08-31T17:06:34.436Z,987.1
2022-08-31T17:08:35.880Z,987.1
2022-08-31T17:10:37.502Z,987.1
2022-08-31T17:12:38.733Z,987.1
2022-08-31T17:14:40.316Z,987.1
2022-08-31T17:16:41.634Z,987.1
2022-08-31T17:18:42.513Z,987.1
2022-08-31T17:20:43.692Z,987.1
2022-08-31T17:22:44.607Z,987.2
2022-08-31T17:24:45.521Z,987.1
2022-08-31T17:26:47.270Z,987.1
2022-08-31T17:28:49.090Z,987.2
2022-08-31T17:30:50.541Z,987.2
2022-08-31T17:31:51.455Z,987.2
2022-08-31T17:33:53.119Z,987.2
2022-08-31T17:37:56.045Z,987.3
2022-08-31T17:39:56.903Z,987.3
2022-08-31T17:41:58.407Z,987.3
2022-08-31T17:44:00.140Z,987.3
2022-08-31T17:46:01.868Z,987.4
2022-08-31T17:48:03.729Z,987.4
2022-08-31T17:50:04.971Z,987.4
2022-08-31T17:52:05.816Z,987.4
2022-08-31T17:54:07.166Z,987.4
2022-08-31T17:56:08.297Z,987.4
2022-08-31T17:58:09.926Z,987.4
2022-08-31T18:00:10.942Z,987.5
2022-08-31T18:02:12.435Z,987.5
2022-08-31T18:04:13.679Z,987.6
2022-08-31T18:06:15.126Z,987.6
2022-08-31T18:08:16.204Z,987.6
2022-08-31T18:10:17.881Z,987.7
2022-08-31T18:12:19.510Z,987.6
2022-08-31T18:14:21.012Z,987.7
2022-08-31T18:16:22.769Z,987.7
2022-08-31T18:18:23.643Z,987.8
2022-08-31T18:22:26.383Z,987.8
2022-08-31T18:24:27.347Z,987.8
2022-08-31T18:26:28.781Z,987.8
2022-08-31T18:28:30.130Z,987.9
2022-08-31T18:30:31.026Z,987.9
2022-08-31T18:32:32.848Z,987.8
2022-08-31T18:34:34.394Z,988
2022-08-31T18:36:35.465Z,987.9
2022-08-31T18:38:36.408Z,987.9
2022-08-31T18:40:38.020Z,987.9
2022-08-31T18:42:39.228Z,988
2022-08-31T18:44:40.513Z,987.9
2022-08-31T18:46:41.930Z,987.9
2022-08-31T18:48:42.784Z,987.9
2022-08-31T18:50:44.995Z,987.9
2022-08-31T18:52:48.382Z,987.8
2022-08-31T18:54:47.835Z,987.8
2022-08-31T18:56:49.553Z,987.9
2022-08-31T18:58:51.442Z,987.9
2022-08-31T19:00:52.819Z,987.9
2022-08-31T19:02:53.566Z,987.9
2022-08-31T19:04:54.507Z,987.9
2022-08-31T19:06:55.444Z,987.9
2022-08-31T19:08:56.974Z,987.8
2022-08-31T19:10:58.325Z,987.8
2022-08-31T19:12:59.120Z,987.9
2022-08-31T19:15:00.493Z,988
2022-08-31T19:17:03.782Z,988
2022-08-31T19:19:02.995Z,988
2022-08-31T19:21:03.890Z,987.9
2022-08-31T19:23:05.040Z,987.9
2022-08-31T19:25:06.423Z,988
2022-08-31T19:27:07.760Z,987.9
2022-08-31T19:29:08.679Z,988
2022-08-31T19:31:10.232Z,988
2022-08-31T19:33:11.599Z,988
2022-08-31T19:35:13.148Z,988.1
2022-08-31T19:37:14.635Z,988
2022-08-31T19:39:16.360Z,988
2022-08-31T19:41:17.664Z,988
2022-08-31T19:43:45.868Z,988
2022-08-31T19:47:24.896Z,988
2022-08-31T19:49:22.660Z,988
2022-08-31T19:51:24.389Z,988.1
2022-08-31T19:55:27.504Z,988.1
2022-08-31T19:59:29.982Z,988
2022-08-31T20:01:31.866Z,988.1
2022-08-31T20:03:33.516Z,988
2022-08-31T20:05:35.567Z,988.1
2022-08-31T20:07:36.228Z,988.1
2022-08-31T20:09:37.429Z,988
2022-08-31T20:11:39.115Z,988
2022-08-31T20:13:40.166Z,988
2022-08-31T20:15:41.813Z,988
2022-08-31T20:17:43.423Z,988
2022-08-31T20:19:44.827Z,987.9
2022-08-31T20:21:46.362Z,988
2022-08-31T20:23:47.668Z,988
2022-08-31T20:25:48.759Z,988
2022-08-31T20:27:50.683Z,988
2022-08-31T20:29:50.994Z,987.9
2022-08-31T20:31:52.848Z,988
2022-08-31T20:33:53.791Z,988
2022-08-31T20:35:55.583Z,988.1
2022-08-31T20:37:57.095Z,988
2022-08-31T20:39:58.544Z,988
2022-08-31T20:41:59.811Z,988
2022-08-31T20:46:03.163Z,988
2022-08-31T20:48:04.816Z,987.9
2022-08-31T20:50:05.945Z,988
2022-08-31T20:52:07.684Z,987.9
2022-08-31T20:54:09.019Z,988
2022-08-31T20:56:09.918Z,987.9
2022-08-31T20:58:11.762Z,988
2022-08-31T21:00:13.225Z,988
2022-08-31T21:02:14.401Z,987.9
2022-08-31T21:04:15.618Z,987.9
2022-08-31T21:06:17.460Z,987.9
2022-08-31T21:08:19.039Z,988
2022-08-31T21:12:21.113Z,987.9
2022-08-31T21:14:22.890Z,988
2022-08-31T21:16:23.865Z,987.9
2022-08-31T21:18:25.211Z,987.9
2022-08-31T21:20:26.289Z,987.9
2022-08-31T21:22:27.699Z,987.9
2022-08-31T21:24:29.539Z,987.9
2022-08-31T21:26:30.651Z,987.9
2022-08-31T21:28:32.228Z,988
2022-08-31T21:30:33.849Z,988
2022-08-31T21:32:34.908Z,987.9
2022-08-31T21:34:36.446Z,987.9
2022-08-31T21:36:37.869Z,988
2022-08-31T21:38:39.683Z,988
2022-08-31T21:40:40.928Z,988
2022-08-31T21:42:42.512Z,988
2022-08-31T21:44:43.658Z,988
2022-08-31T21:46:48.379Z,987.9
2022-08-31T21:48:46.435Z,988
2022-08-31T21:50:47.749Z,988
2022-08-31T21:52:48.961Z,988
2022-08-31T21:54:49.891Z,988
2022-08-31T21:56:51.642Z,988.1
2022-08-31T21:58:53.030Z,988.1
2022-08-31T22:00:54.815Z,988.2
2022-08-31T22:02:56.035Z,988.2
2022-08-31T22:04:57.530Z,988.1
2022-08-31T22:06:59.067Z,988.1
2022-08-31T22:11:01.677Z,988.2
2022-08-31T22:13:02.912Z,988.2
2022-08-31T22:15:04.671Z,988.2
2022-08-31T22:17:06.142Z,988.2
2022-08-31T22:19:07.812Z,988.2
2022-08-31T22:21:09.088Z,988.2
2022-08-31T22:23:10.055Z,988.2
2022-08-31T22:25:11.099Z,988.2
2022-08-31T22:27:12.266Z,988.2
2022-08-31T22:29:13.665Z,988.2
2022-08-31T22:33:16.237Z,988.2
2022-08-31T22:35:17.559Z,988.2
2022-08-31T22:37:19.405Z,988.3
2022-08-31T22:39:20.813Z,988.3
2022-08-31T22:41:21.816Z,988.3
2022-08-31T22:43:23.383Z,988.3
2022-08-31T22:45:24.372Z,988.3
2022-08-31T22:47:26.109Z,988.3
2022-08-31T22:49:27.957Z,988.3
2022-08-31T22:51:29.663Z,988.3
2022-08-31T22:53:31.287Z,988.2
2022-08-31T22:55:32.674Z,988.2
2022-08-31T22:57:34.562Z,988.3
2022-08-31T22:59:35.580Z,988.3
2022-08-31T23:01:37.278Z,988.2
2022-08-31T23:03:38.628Z,988.3
2022-08-31T23:05:40.016Z,988.2
2022-08-31T23:09:43.407Z,988.2
2022-08-31T23:11:44.817Z,988.2
2022-08-31T23:13:45.844Z,988.3
2022-08-31T23:15:47.304Z,988.2
2022-08-31T23:17:48.859Z,988.2
2022-08-31T23:19:50.596Z,988.2
2022-08-31T23:21:52.808Z,988.2
2022-08-31T23:23:53.212Z,988.2
2022-08-31T23:25:54.457Z,988.2
2022-08-31T23:27:55.978Z,988.1
2022-08-31T23:29:57.239Z,988.2
2022-08-31T23:31:58.315Z,988.2
2022-08-31T23:33:59.244Z,988.2
2022-08-31T23:36:00.527Z,988.2
2022-08-31T23:38:02.141Z,988.2
2022-08-31T23:40:03.480Z,988.1
2022-08-31T23:42:05.067Z,988.2
2022-08-31T23:44:06.185Z,988.2
2022-08-31T23:46:07.493Z,988.1
2022-08-31T23:48:08.644Z,988.1
2022-08-31T23:50:09.645Z,988.1
2022-08-31T23:52:11.108Z,988.2
2022-08-31T23:54:12.480Z,988.1
2022-08-31T23:56:14.336Z,988.1
2022-08-31T23:58:15.306Z,988.1
